Laracha, Spain
Current Conditions -  °F | °C
As of 5:00 PM on Tuesday 21 Oct 2014 (Local Time) from LECO Reporting Station
Broken Clouds Broken Clouds  
Wind Chill: 64°   Ceiling: 1000
Heat Index: 64°   Visibility: 6mi
Dew Point: 63°   Wind: 2mph
Humidity: 94%   Direction: NA
Pressure: 30.36"   Gusts: NA
Location:  43.25°N, 8.59°W
Report Text: LECO 211500Z VRB02KT 9999 FEW006 BKN010 18/17 Q1028 NOSIG
Loading
Personal Weather Stations






























Interactive Weather Map
Tropical Storm Tracking
New forecast layout! Learn more

10-Day Weather Forecast

Advertisements
Track Severe Weather on mobile